Time;durP1;ratioP1;P1;durP2;ratioP2;P2;SDS_P1;SDS_P2;PMS_P1;PMS_P2;Temp;Humidity;BMP_temperature;BMP_pressure;BME280_temperature;BME280_humidity;BME280_pressure;Samples;Min_cycle;Max_cycle;Signal;HPM_P1;HPM_P2
2022/04/24 00:00:54;;;;;;;9.15;8.38;;;;;;;;;;2097490;28;20175;-52
2022/04/24 00:01:54;;;;;;;10.80;9.80;;;;;;;;;;2097195;28;20155;-50
2022/04/24 00:02:54;;;;;;;9.00;8.27;;;;;;;;;;2101941;28;20178;-50
2022/04/24 00:03:55;;;;;;;8.80;8.00;;;;;;;;;;2101578;28;20182;-52
2022/04/24 00:04:55;;;;;;;8.10;7.50;;;;;;;;;;2102689;28;20221;-50
2022/04/24 00:05:56;;;;;;;8.75;8.10;;;;;;;;;;2092462;28;20179;-52
2022/04/24 00:06:56;;;;;;;9.18;8.38;;;;;;;;;;2091018;28;20282;-51
2022/04/24 00:07:56;;;;;;;8.13;7.53;;;;;;;;;;2102458;28;20187;-51
2022/04/24 00:08:58;;;;;;;8.32;7.63;;;;;;;;;;2101538;28;20197;-52
2022/04/24 00:09:59;;;;;;;8.48;7.88;;;;;;;;;;2100616;28;20240;-50
2022/04/24 00:10:59;;;;;;;10.02;9.20;;;;;;;;;;2099064;28;20210;-50
2022/04/24 00:12:00;;;;;;;8.10;7.50;;;;;;;;;;2098449;28;20225;-50
2022/04/24 00:13:03;;;;;;;9.90;9.00;;;;;;;;;;2094464;28;20178;-50
2022/04/24 00:14:09;;;;;;;8.25;7.55;;;;;;;;;;2097794;28;20203;-50
2022/04/24 00:15:09;;;;;;;8.50;7.90;;;;;;;;;;2098777;28;20566;-50
2022/04/24 00:16:10;;;;;;;8.32;7.53;;;;;;;;;;2096790;28;20167;-50
2022/04/24 00:17:11;;;;;;;8.07;7.47;;;;;;;;;;2098183;28;20270;-50
2022/04/24 00:18:11;;;;;;;7.97;7.28;;;;;;;;;;2097235;28;20171;-48
2022/04/24 00:19:11;;;;;;;8.18;7.57;;;;;;;;;;2097334;28;20175;-50
2022/04/24 00:20:12;;;;;;;7.05;6.55;;;;;;;;;;2095295;28;20171;-55
2022/04/24 00:21:12;;;;;;;7.85;7.32;;;;;;;;;;2096435;28;20173;-51
2022/04/24 00:22:12;;;;;;;7.55;7.05;;;;;;;;;;2096620;28;20179;-49
2022/04/24 00:23:13;;;;;;;7.72;7.03;;;;;;;;;;2097606;28;20170;-50
2022/04/24 00:24:13;;;;;;;7.85;7.25;;;;;;;;;;2094908;28;20269;-52
2022/04/24 00:25:13;;;;;;;7.25;6.65;;;;;;;;;;2096114;28;20228;-51
2022/04/24 00:26:13;;;;;;;7.60;6.90;;;;;;;;;;2085339;28;20172;-50
2022/04/24 00:27:14;;;;;;;7.15;6.60;;;;;;;;;;2088203;28;20231;-50
2022/04/24 00:28:14;;;;;;;8.05;7.25;;;;;;;;;;2085797;28;20254;-50
2022/04/24 00:29:14;;;;;;;7.97;7.28;;;;;;;;;;2083683;28;20176;-51
2022/04/24 00:30:14;;;;;;;7.68;7.00;;;;;;;;;;2097715;28;20632;-51
2022/04/24 00:31:15;;;;;;;7.25;6.70;;;;;;;;;;2097072;28;20186;-50
2022/04/24 00:32:16;;;;;;;7.32;6.78;;;;;;;;;;2097899;28;20272;-50
2022/04/24 00:33:16;;;;;;;7.93;7.07;;;;;;;;;;2096668;28;20175;-51
2022/04/24 00:34:16;;;;;;;6.82;6.43;;;;;;;;;;2096613;28;20727;-49
2022/04/24 00:35:16;;;;;;;7.80;7.20;;;;;;;;;;2097014;28;20183;-49
2022/04/24 00:36:17;;;;;;;8.35;7.55;;;;;;;;;;2096932;28;20202;-54
2022/04/24 00:37:17;;;;;;;7.55;6.95;;;;;;;;;;2094735;28;20181;-50
2022/04/24 00:38:17;;;;;;;8.13;7.32;;;;;;;;;;2095625;28;20163;-51
2022/04/24 00:39:17;;;;;;;7.45;6.72;;;;;;;;;;2093810;28;20229;-51
2022/04/24 00:40:19;;;;;;;8.00;7.30;;;;;;;;;;2095522;28;20280;-52
2022/04/24 00:41:19;;;;;;;7.75;7.07;;;;;;;;;;2095539;28;20233;-50
2022/04/24 00:42:20;;;;;;;9.23;6.65;;;;;;;;;;2089100;28;20711;-49
2022/04/24 00:43:20;;;;;;;7.70;7.10;;;;;;;;;;2089337;28;20179;-53
2022/04/24 00:44:43;;;;;;;7.43;6.82;;;;;;;;;;2093467;28;20172;-53
2022/04/24 00:46:11;;;;;;;7.10;6.50;;;;;;;;;;2089673;28;20656;-50
2022/04/24 00:47:14;;;;;;;7.78;6.95;;;;;;;;;;2091382;28;20270;-51
2022/04/24 00:48:14;;;;;;;8.27;7.53;;;;;;;;;;2090375;28;20187;-50
2022/04/24 00:49:14;;;;;;;7.15;6.65;;;;;;;;;;2084824;28;20176;-49
2022/04/24 00:50:15;;;;;;;7.00;6.50;;;;;;;;;;2098798;28;20183;-52
2022/04/24 00:51:15;;;;;;;7.25;6.63;;;;;;;;;;2100160;28;20212;-51
2022/04/24 00:52:15;;;;;;;7.35;6.75;;;;;;;;;;2099594;28;20227;-52
2022/04/24 00:53:15;;;;;;;7.40;6.80;;;;;;;;;;2100888;28;20590;-49
2022/04/24 00:54:16;;;;;;;7.03;6.43;;;;;;;;;;2098731;28;20183;-50
2022/04/24 00:55:17;;;;;;;6.75;6.35;;;;;;;;;;2098885;28;20187;-49
2022/04/24 00:56:18;;;;;;;7.30;6.80;;;;;;;;;;2099741;28;20171;-51
2022/04/24 00:57:18;;;;;;;6.40;6.00;;;;;;;;;;2096993;28;20659;-50
2022/04/24 00:58:18;;;;;;;6.80;6.20;;;;;;;;;;2097554;28;20221;-50
2022/04/24 00:59:19;;;;;;;6.45;6.05;;;;;;;;;;2089754;28;20270;-50
2022/04/24 01:00:19;;;;;;;6.80;6.30;;;;;;;;;;2091902;28;20179;-51
2022/04/24 01:01:19;;;;;;;7.13;6.47;;;;;;;;;;2100044;28;20178;-51
2022/04/24 01:02:19;;;;;;;7.03;6.53;;;;;;;;;;2099579;28;20242;-49
2022/04/24 01:03:20;;;;;;;7.03;6.53;;;;;;;;;;2098250;28;20501;-52
2022/04/24 01:04:20;;;;;;;7.30;6.45;;;;;;;;;;2079193;28;20216;-52
2022/04/24 01:05:21;;;;;;;7.00;6.50;;;;;;;;;;2082870;28;20521;-51
2022/04/24 01:06:21;;;;;;;7.07;6.47;;;;;;;;;;2088006;28;20203;-52
2022/04/24 01:07:21;;;;;;;7.72;7.03;;;;;;;;;;2090450;28;20171;-52
2022/04/24 01:08:22;;;;;;;10.35;6.82;;;;;;;;;;2099492;28;20191;-54
2022/04/24 01:09:23;;;;;;;6.78;6.28;;;;;;;;;;2099132;28;20166;-50
2022/04/24 01:10:23;;;;;;;7.65;7.03;;;;;;;;;;2092214;28;20192;-50
2022/04/24 01:11:23;;;;;;;8.68;7.90;;;;;;;;;;2106688;22;20223;-47
2022/04/24 01:12:23;;;;;;;7.55;6.85;;;;;;;;;;2097519;28;20171;-49
2022/04/24 01:13:24;;;;;;;8.30;7.55;;;;;;;;;;2097407;28;20217;-57
2022/04/24 01:14:28;;;;;;;9.43;8.52;;;;;;;;;;2093302;28;20172;-52
2022/04/24 01:15:28;;;;;;;9.30;8.32;;;;;;;;;;2097741;28;20678;-54
2022/04/24 01:16:29;;;;;;;8.40;7.70;;;;;;;;;;2095370;28;20251;-54
2022/04/24 01:17:29;;;;;;;7.13;6.53;;;;;;;;;;2096914;28;20178;-52
2022/04/24 01:18:30;;;;;;;8.25;7.50;;;;;;;;;;2097662;28;20190;-57
2022/04/24 01:19:31;;;;;;;7.25;6.70;;;;;;;;;;2094377;28;20168;-53
2022/04/24 01:20:31;;;;;;;7.18;6.68;;;;;;;;;;2099111;28;20305;-56
2022/04/24 01:21:32;;;;;;;7.55;6.68;;;;;;;;;;2099183;28;20194;-57
2022/04/24 01:22:33;;;;;;;8.13;7.63;;;;;;;;;;2089942;28;20179;-53
2022/04/24 01:23:34;;;;;;;7.78;6.82;;;;;;;;;;2090460;28;20223;-55
2022/04/24 01:24:34;;;;;;;7.75;7.15;;;;;;;;;;2098755;28;20175;-56
2022/04/24 01:25:34;;;;;;;7.15;6.60;;;;;;;;;;2099441;28;20187;-52
2022/04/24 01:26:35;;;;;;;6.97;6.32;;;;;;;;;;2099632;28;20167;-54
2022/04/24 01:27:35;;;;;;;6.85;6.38;;;;;;;;;;2098004;28;20178;-57
2022/04/24 01:28:35;;;;;;;6.95;6.40;;;;;;;;;;2096272;28;20184;-50
2022/04/24 01:29:36;;;;;;;7.00;6.40;;;;;;;;;;2098444;28;20167;-55
2022/04/24 01:30:36;;;;;;;6.68;6.03;;;;;;;;;;2099191;28;20194;-54
2022/04/24 01:31:36;;;;;;;7.93;6.75;;;;;;;;;;2090178;28;20233;-57
2022/04/24 01:32:38;;;;;;;7.68;7.05;;;;;;;;;;2098306;28;20683;-55
2022/04/24 01:33:39;;;;;;;7.95;7.22;;;;;;;;;;2099257;28;20175;-57
2022/04/24 01:34:39;;;;;;;6.95;6.45;;;;;;;;;;2095182;28;20642;-55
2022/04/24 01:35:39;;;;;;;7.75;7.05;;;;;;;;;;2098863;28;20167;-54
2022/04/24 01:36:40;;;;;;;7.10;6.60;;;;;;;;;;2098546;28;20163;-56
2022/04/24 01:37:43;;;;;;;7.22;6.63;;;;;;;;;;2099081;28;20175;-55
2022/04/24 01:38:43;;;;;;;7.15;6.57;;;;;;;;;;2098981;28;20224;-54
2022/04/24 01:39:44;;;;;;;6.63;6.03;;;;;;;;;;2098944;28;20609;-55
2022/04/24 01:40:44;;;;;;;7.13;6.53;;;;;;;;;;2097370;28;20178;-55
2022/04/24 01:41:45;;;;;;;6.82;6.32;;;;;;;;;;2097802;28;20219;-55
2022/04/24 01:42:45;;;;;;;7.82;6.18;;;;;;;;;;2097751;28;20613;-55
2022/04/24 01:43:46;;;;;;;6.45;6.05;;;;;;;;;;2094040;28;20544;-54
2022/04/24 01:44:47;;;;;;;6.95;6.35;;;;;;;;;;2097475;28;20210;-53
2022/04/24 01:45:47;;;;;;;7.20;6.63;;;;;;;;;;2098049;28;20178;-52
2022/04/24 01:46:47;;;;;;;6.75;6.22;;;;;;;;;;2097663;28;20245;-53
2022/04/24 01:47:47;;;;;;;7.43;6.82;;;;;;;;;;2097226;28;20274;-54
2022/04/24 01:48:48;;;;;;;7.20;6.15;;;;;;;;;;2097755;28;20246;-51
2022/04/24 01:49:48;;;;;;;6.13;5.68;;;;;;;;;;2093989;28;20171;-59
2022/04/24 01:50:51;;;;;;;7.25;6.65;;;;;;;;;;2098018;28;20944;-55
2022/04/24 01:51:51;;;;;;;6.75;6.15;;;;;;;;;;2096868;28;20703;-51
2022/04/24 01:52:52;;;;;;;8.02;6.28;;;;;;;;;;2098285;28;20175;-54
2022/04/24 01:53:52;;;;;;;6.70;6.10;;;;;;;;;;2095997;28;20163;-50
2022/04/24 01:54:52;;;;;;;6.82;6.30;;;;;;;;;;2097546;28;20174;-51
2022/04/24 01:55:52;;;;;;;7.15;6.45;;;;;;;;;;2096751;28;20183;-56
2022/04/24 01:56:53;;;;;;;5.90;5.50;;;;;;;;;;2098505;28;20197;-58
2022/04/24 01:57:53;;;;;;;7.25;6.53;;;;;;;;;;2095253;28;20266;-55
2022/04/24 01:58:53;;;;;;;6.20;5.80;;;;;;;;;;2099122;28;20171;-58
2022/04/24 01:59:53;;;;;;;7.45;6.88;;;;;;;;;;2098558;28;20198;-56
2022/04/24 02:00:54;;;;;;;6.82;6.22;;;;;;;;;;2098183;28;20517;-51
2022/04/24 02:01:54;;;;;;;6.78;6.28;;;;;;;;;;2095391;28;20171;-60
2022/04/24 02:02:54;;;;;;;7.20;6.38;;;;;;;;;;2100161;28;20619;-52
2022/04/24 02:03:54;;;;;;;5.97;5.57;;;;;;;;;;2094363;28;20221;-50
2022/04/24 02:04:55;;;;;;;6.93;6.38;;;;;;;;;;2097318;28;20611;-53
2022/04/24 02:05:55;;;;;;;5.53;5.13;;;;;;;;;;2097421;28;20278;-51
2022/04/24 02:06:55;;;;;;;7.53;6.05;;;;;;;;;;2096686;28;20190;-53
2022/04/24 02:07:55;;;;;;;6.78;6.28;;;;;;;;;;2097454;28;20222;-55
2022/04/24 02:08:56;;;;;;;6.63;6.15;;;;;;;;;;2097021;28;20728;-52
2022/04/24 02:09:56;;;;;;;6.38;5.88;;;;;;;;;;2097657;28;20638;-54
2022/04/24 02:10:56;;;;;;;6.50;5.95;;;;;;;;;;2095060;28;20589;-51
2022/04/24 02:11:56;;;;;;;7.43;5.90;;;;;;;;;;2092638;28;20205;-56
2022/04/24 02:12:57;;;;;;;6.65;6.07;;;;;;;;;;2098004;28;20624;-54
2022/04/24 02:13:57;;;;;;;6.43;5.90;;;;;;;;;;2096394;28;20201;-55
2022/04/24 02:14:58;;;;;;;6.55;5.93;;;;;;;;;;2094623;28;20263;-56
2022/04/24 02:15:58;;;;;;;6.57;6.07;;;;;;;;;;2094676;28;20208;-58
2022/04/24 02:16:58;;;;;;;6.43;5.93;;;;;;;;;;2098443;28;20187;-55
2022/04/24 02:17:58;;;;;;;6.60;6.07;;;;;;;;;;2098348;28;20206;-53
2022/04/24 02:18:59;;;;;;;6.32;5.78;;;;;;;;;;2095441;28;20202;-53
2022/04/24 02:19:59;;;;;;;7.00;6.15;;;;;;;;;;2096217;28;20191;-51
2022/04/24 02:21:00;;;;;;;6.10;5.68;;;;;;;;;;2097401;28;20167;-53
2022/04/24 02:22:00;;;;;;;6.57;6.07;;;;;;;;;;2094963;28;20590;-57
2022/04/24 02:23:01;;;;;;;7.05;6.25;;;;;;;;;;2097783;28;20197;-56
2022/04/24 02:24:01;;;;;;;6.35;5.90;;;;;;;;;;2097029;28;20553;-54
2022/04/24 02:25:01;;;;;;;6.85;6.25;;;;;;;;;;2097801;28;20166;-56
2022/04/24 02:26:01;;;;;;;6.55;6.03;;;;;;;;;;2097635;28;20175;-55
2022/04/24 02:27:02;;;;;;;6.50;6.00;;;;;;;;;;2098369;28;20659;-51
2022/04/24 02:28:02;;;;;;;6.68;5.97;;;;;;;;;;2097560;28;20179;-57
2022/04/24 02:29:03;;;;;;;6.05;5.55;;;;;;;;;;2098265;28;20661;-53
2022/04/24 02:30:03;;;;;;;6.45;5.68;;;;;;;;;;2093376;28;20175;-52
2022/04/24 02:31:03;;;;;;;6.57;6.05;;;;;;;;;;2097148;28;20592;-49
2022/04/24 02:32:04;;;;;;;6.40;5.90;;;;;;;;;;2096643;28;20233;-55
2022/04/24 02:33:04;;;;;;;6.32;5.82;;;;;;;;;;2096952;28;20730;-57
2022/04/24 02:34:04;;;;;;;6.75;6.25;;;;;;;;;;2093377;28;20544;-53
2022/04/24 02:35:05;;;;;;;5.53;5.13;;;;;;;;;;2096633;28;20255;-55
2022/04/24 02:36:05;;;;;;;6.60;5.90;;;;;;;;;;2093746;28;20186;-53
2022/04/24 02:37:05;;;;;;;6.78;6.10;;;;;;;;;;2095827;28;20171;-51
2022/04/24 02:38:06;;;;;;;7.68;6.15;;;;;;;;;;2097840;28;20264;-54
2022/04/24 02:39:06;;;;;;;5.55;5.15;;;;;;;;;;2094120;28;20182;-55
2022/04/24 02:40:10;;;;;;;5.78;5.35;;;;;;;;;;2096167;28;20174;-54
2022/04/24 02:41:10;;;;;;;5.80;5.40;;;;;;;;;;2094582;28;20175;-54
2022/04/24 02:42:10;;;;;;;6.35;5.85;;;;;;;;;;2097035;28;20167;-54
2022/04/24 02:43:10;;;;;;;5.97;5.55;;;;;;;;;;2098157;28;20175;-54
2022/04/24 02:44:11;;;;;;;6.63;6.18;;;;;;;;;;2097957;28;20613;-51
2022/04/24 02:45:11;;;;;;;6.25;5.72;;;;;;;;;;2097883;28;20171;-54
2022/04/24 02:46:11;;;;;;;6.65;6.15;;;;;;;;;;2098190;28;20182;-53
2022/04/24 02:47:11;;;;;;;5.63;5.30;;;;;;;;;;2096685;28;20178;-53
2022/04/24 02:48:12;;;;;;;7.05;6.40;;;;;;;;;;2094805;28;20199;-52
2022/04/24 02:49:12;;;;;;;6.47;5.28;;;;;;;;;;2102564;28;20304;-54
2022/04/24 02:50:13;;;;;;;6.20;5.70;;;;;;;;;;2101247;28;20258;-54
2022/04/24 02:51:13;;;;;;;6.03;5.53;;;;;;;;;;2094591;28;20253;-54
2022/04/24 02:52:14;;;;;;;6.82;6.13;;;;;;;;;;2096962;28;20174;-50
2022/04/24 02:53:15;;;;;;;6.18;5.68;;;;;;;;;;2089076;28;20180;-57
2022/04/24 02:54:15;;;;;;;7.07;6.38;;;;;;;;;;2088348;28;20183;-50
2022/04/24 02:55:15;;;;;;;6.28;5.78;;;;;;;;;;2096876;28;20284;-52
2022/04/24 02:56:16;;;;;;;6.43;5.93;;;;;;;;;;2097499;28;20629;-50
2022/04/24 02:57:16;;;;;;;5.90;5.50;;;;;;;;;;2096780;28;20207;-55
2022/04/24 02:58:19;;;;;;;6.25;5.85;;;;;;;;;;2098402;28;20171;-50
2022/04/24 02:59:19;;;;;;;5.75;5.35;;;;;;;;;;2097761;28;20163;-53
2022/04/24 03:00:22;;;;;;;6.00;5.60;;;;;;;;;;2097747;28;20175;-53
2022/04/24 03:01:22;;;;;;;6.70;6.00;;;;;;;;;;2097045;28;20186;-48
2022/04/24 03:02:23;;;;;;;5.93;5.55;;;;;;;;;;2098007;28;20253;-56
2022/04/24 03:03:23;;;;;;;6.65;6.05;;;;;;;;;;2099550;28;20542;-52
2022/04/24 03:04:23;;;;;;;6.90;5.78;;;;;;;;;;2096237;28;20761;-50
2022/04/24 03:05:23;;;;;;;6.78;6.15;;;;;;;;;;2096854;28;20558;-53
2022/04/24 03:06:24;;;;;;;6.32;5.82;;;;;;;;;;2096524;28;20241;-51
2022/04/24 03:07:24;;;;;;;6.80;6.00;;;;;;;;;;2096374;28;20278;-52
2022/04/24 03:08:24;;;;;;;6.60;5.93;;;;;;;;;;2097098;28;20182;-53
2022/04/24 03:09:25;;;;;;;6.88;6.22;;;;;;;;;;2098022;28;20258;-56
2022/04/24 03:10:25;;;;;;;6.80;6.10;;;;;;;;;;2097689;28;20267;-52
2022/04/24 03:11:26;;;;;;;6.07;5.63;;;;;;;;;;2097986;28;20207;-48
2022/04/24 03:12:28;;;;;;;6.50;5.90;;;;;;;;;;2096738;28;20186;-50
2022/04/24 03:13:29;;;;;;;6.68;6.18;;;;;;;;;;2097984;28;20253;-55
2022/04/24 03:14:29;;;;;;;6.53;6.00;;;;;;;;;;2097424;28;20187;-53
2022/04/24 03:15:29;;;;;;;5.75;5.40;;;;;;;;;;2097990;28;20174;-52
2022/04/24 03:16:29;;;;;;;6.47;5.88;;;;;;;;;;2096241;28;20163;-53
2022/04/24 03:17:31;;;;;;;6.35;5.82;;;;;;;;;;2097228;28;20534;-56
2022/04/24 03:18:31;;;;;;;6.68;6.07;;;;;;;;;;2097902;28;20217;-52
2022/04/24 03:19:31;;;;;;;7.53;6.85;;;;;;;;;;2096694;28;20174;-52
2022/04/24 03:20:31;;;;;;;7.57;6.78;;;;;;;;;;2097021;28;20519;-54
2022/04/24 03:21:32;;;;;;;6.60;6.10;;;;;;;;;;2095981;28;20194;-52
2022/04/24 03:22:33;;;;;;;6.10;5.68;;;;;;;;;;2096897;28;20202;-55
2022/04/24 03:23:33;;;;;;;6.68;6.15;;;;;;;;;;2097152;28;20171;-53
2022/04/24 03:24:34;;;;;;;6.22;5.72;;;;;;;;;;2096882;28;20274;-52
2022/04/24 03:25:34;;;;;;;7.25;6.65;;;;;;;;;;2094756;28;20282;-57
2022/04/24 03:26:35;;;;;;;6.57;6.05;;;;;;;;;;2097976;28;20178;-53
2022/04/24 03:27:35;;;;;;;6.57;6.07;;;;;;;;;;2097328;28;20662;-56
2022/04/24 03:28:36;;;;;;;5.90;5.50;;;;;;;;;;2096085;28;20178;-51
2022/04/24 03:29:36;;;;;;;6.20;5.70;;;;;;;;;;2096576;28;20253;-52
2022/04/24 03:30:36;;;;;;;6.38;5.78;;;;;;;;;;2093623;28;20167;-52
2022/04/24 03:31:36;;;;;;;6.70;6.20;;;;;;;;;;2097388;28;20206;-56
2022/04/24 03:32:37;;;;;;;6.38;5.88;;;;;;;;;;2093841;28;20542;-55
2022/04/24 03:33:37;;;;;;;6.38;5.88;;;;;;;;;;2097334;28;20639;-57
2022/04/24 03:34:37;;;;;;;5.95;5.45;;;;;;;;;;2093358;28;20187;-54
2022/04/24 03:35:37;;;;;;;6.97;6.45;;;;;;;;;;2096889;28;20178;-50
2022/04/24 03:36:38;;;;;;;6.53;5.85;;;;;;;;;;2097408;28;20211;-56
2022/04/24 03:37:38;;;;;;;5.95;5.53;;;;;;;;;;2097370;28;20316;-55
2022/04/24 03:38:38;;;;;;;8.20;6.25;;;;;;;;;;2093010;28;20191;-57
2022/04/24 03:39:39;;;;;;;5.97;5.57;;;;;;;;;;2097225;28;20170;-52
2022/04/24 03:40:39;;;;;;;7.13;5.90;;;;;;;;;;2096738;28;20245;-55
2022/04/24 03:41:40;;;;;;;7.22;6.60;;;;;;;;;;2096562;28;20202;-56
2022/04/24 03:42:42;;;;;;;6.50;5.90;;;;;;;;;;2097385;28;20175;-55
2022/04/24 03:43:42;;;;;;;7.13;6.43;;;;;;;;;;2097357;28;20225;-54
2022/04/24 03:44:42;;;;;;;8.18;5.75;;;;;;;;;;2097139;28;20268;-51
2022/04/24 03:45:42;;;;;;;9.70;5.68;;;;;;;;;;2092472;28;20229;-53
2022/04/24 03:46:43;;;;;;;6.13;5.63;;;;;;;;;;2097358;28;20175;-51
2022/04/24 03:47:43;;;;;;;6.22;5.72;;;;;;;;;;2097047;28;20182;-53
2022/04/24 03:48:43;;;;;;;6.85;6.32;;;;;;;;;;2097172;28;20206;-54
2022/04/24 03:49:44;;;;;;;6.70;6.03;;;;;;;;;;2092503;28;20308;-58
2022/04/24 03:50:44;;;;;;;6.60;6.15;;;;;;;;;;2096979;28;20167;-54
2022/04/24 03:51:44;;;;;;;7.07;6.00;;;;;;;;;;2096795;28;20582;-52
2022/04/24 03:52:45;;;;;;;7.07;6.50;;;;;;;;;;2096383;28;20162;-52
2022/04/24 03:53:46;;;;;;;6.43;5.82;;;;;;;;;;2097483;28;20256;-52
2022/04/24 03:54:46;;;;;;;6.80;6.20;;;;;;;;;;2096463;28;20285;-59
2022/04/24 03:55:46;;;;;;;6.43;5.93;;;;;;;;;;2096541;28;20689;-56
2022/04/24 03:56:46;;;;;;;6.80;6.18;;;;;;;;;;2096288;28;20515;-54
2022/04/24 03:57:46;;;;;;;7.03;6.47;;;;;;;;;;2096113;28;20307;-58
2022/04/24 03:58:47;;;;;;;6.20;5.78;;;;;;;;;;2096273;28;20190;-54
2022/04/24 03:59:47;;;;;;;7.03;6.53;;;;;;;;;;2096641;28;20167;-55
2022/04/24 04:00:47;;;;;;;6.87;6.20;;;;;;;;;;2096585;28;20171;-57
2022/04/24 04:01:48;;;;;;;6.65;6.05;;;;;;;;;;2091291;28;20202;-52
2022/04/24 04:02:48;;;;;;;6.50;6.00;;;;;;;;;;2099204;28;20203;-52
2022/04/24 04:03:49;;;;;;;6.47;5.93;;;;;;;;;;2096208;28;20182;-51
2022/04/24 04:04:50;;;;;;;6.82;6.28;;;;;;;;;;2092944;28;20186;-51
2022/04/24 04:05:50;;;;;;;9.70;6.40;;;;;;;;;;2097731;28;20185;-52
2022/04/24 04:06:50;;;;;;;6.63;6.13;;;;;;;;;;2096621;28;20202;-51
2022/04/24 04:07:50;;;;;;;6.22;5.72;;;;;;;;;;2088659;28;20569;-53
2022/04/24 04:08:51;;;;;;;6.63;6.13;;;;;;;;;;2096180;28;20300;-54
2022/04/24 04:09:51;;;;;;;6.63;6.03;;;;;;;;;;2097285;28;20167;-55
2022/04/24 04:10:51;;;;;;;7.32;5.78;;;;;;;;;;2094928;28;20243;-52
2022/04/24 04:11:51;;;;;;;6.43;5.90;;;;;;;;;;2091358;28;20241;-50
2022/04/24 04:12:51;;;;;;;6.28;5.88;;;;;;;;;;2096677;28;20553;-54
2022/04/24 04:13:52;;;;;;;6.47;5.97;;;;;;;;;;2097697;28;20623;-50
2022/04/24 04:14:53;;;;;;;6.88;6.22;;;;;;;;;;2096707;28;20162;-55
2022/04/24 04:15:53;;;;;;;6.57;5.97;;;;;;;;;;2096228;28;20167;-50
2022/04/24 04:16:53;;;;;;;6.37;5.77;;;;;;;;;;2096980;28;20167;-53
2022/04/24 04:17:53;;;;;;;6.97;6.30;;;;;;;;;;2096320;28;20180;-55
2022/04/24 04:18:54;;;;;;;6.05;5.63;;;;;;;;;;2098520;28;20173;-55
2022/04/24 04:19:54;;;;;;;6.45;5.90;;;;;;;;;;2096828;28;20164;-48
2022/04/24 04:20:54;;;;;;;6.23;5.73;;;;;;;;;;2097749;28;20252;-56
2022/04/24 04:21:55;;;;;;;5.80;5.40;;;;;;;;;;2095753;28;20711;-53
2022/04/24 04:22:56;;;;;;;6.45;5.82;;;;;;;;;;2098562;28;20186;-56
2022/04/24 04:23:56;;;;;;;6.70;6.10;;;;;;;;;;2095778;28;20175;-54
2022/04/24 04:24:56;;;;;;;6.65;5.95;;;;;;;;;;2098838;28;20190;-54
2022/04/24 04:25:56;;;;;;;6.75;5.50;;;;;;;;;;2098474;28;20175;-50
2022/04/24 04:26:57;;;;;;;6.47;6.00;;;;;;;;;;2098683;28;20170;-53
2022/04/24 04:27:57;;;;;;;5.85;5.35;;;;;;;;;;2098572;28;20183;-53
2022/04/24 04:28:57;;;;;;;6.40;5.90;;;;;;;;;;2098662;28;20186;-56
2022/04/24 04:29:58;;;;;;;6.87;6.27;;;;;;;;;;2098314;28;20207;-52
2022/04/24 04:30:59;;;;;;;6.25;5.85;;;;;;;;;;2099135;28;20600;-49
2022/04/24 04:31:59;;;;;;;6.28;5.30;;;;;;;;;;2098581;28;20256;-55
2022/04/24 04:32:59;;;;;;;6.53;6.07;;;;;;;;;;2098514;28;20708;-56
2022/04/24 04:34:00;;;;;;;7.50;6.23;;;;;;;;;;2093726;28;20266;-50
2022/04/24 04:35:00;;;;;;;6.73;6.23;;;;;;;;;;2098255;28;20179;-54
2022/04/24 04:36:00;;;;;;;6.88;6.28;;;;;;;;;;2095840;28;20593;-56
2022/04/24 04:37:00;;;;;;;6.20;5.75;;;;;;;;;;2097382;28;20594;-56
2022/04/24 04:38:01;;;;;;;6.90;6.30;;;;;;;;;;2094092;28;20550;-51
2022/04/24 04:39:01;;;;;;;6.43;5.90;;;;;;;;;;2098041;28;20175;-56
2022/04/24 04:40:02;;;;;;;7.38;6.70;;;;;;;;;;2096749;28;20194;-53
2022/04/24 04:41:03;;;;;;;6.60;6.10;;;;;;;;;;2093925;28;20232;-57
2022/04/24 04:42:04;;;;;;;6.28;5.68;;;;;;;;;;2097672;28;20175;-54
2022/04/24 04:43:04;;;;;;;6.35;5.65;;;;;;;;;;2098018;28;20183;-55
2022/04/24 04:44:04;;;;;;;6.30;5.80;;;;;;;;;;2097588;28;20252;-49
2022/04/24 04:45:06;;;;;;;5.90;5.50;;;;;;;;;;2096666;28;20187;-55
2022/04/24 04:46:06;;;;;;;6.40;5.90;;;;;;;;;;2098800;28;20179;-52
2022/04/24 04:47:06;;;;;;;6.57;6.00;;;;;;;;;;2097720;28;20609;-53
2022/04/24 04:48:07;;;;;;;6.50;5.97;;;;;;;;;;2098400;28;20166;-55
2022/04/24 04:49:07;;;;;;;6.33;5.83;;;;;;;;;;2098245;28;20179;-57
2022/04/24 04:50:08;;;;;;;6.20;5.70;;;;;;;;;;2094665;28;20191;-55
2022/04/24 04:51:08;;;;;;;6.25;5.57;;;;;;;;;;2094705;28;20175;-55
2022/04/24 04:52:08;;;;;;;6.30;5.80;;;;;;;;;;2092716;28;20952;-53
2022/04/24 04:53:09;;;;;;;6.65;6.15;;;;;;;;;;2097933;28;20171;-54
2022/04/24 04:54:09;;;;;;;5.97;5.47;;;;;;;;;;2098030;28;20240;-53
2022/04/24 04:55:09;;;;;;;6.25;5.78;;;;;;;;;;2098472;28;20180;-52
2022/04/24 04:56:09;;;;;;;6.67;6.03;;;;;;;;;;2098124;28;20230;-56
2022/04/24 04:57:10;;;;;;;8.15;6.13;;;;;;;;;;2098623;28;20183;-54
2022/04/24 04:58:10;;;;;;;6.10;5.70;;;;;;;;;;2097505;28;20175;-53
2022/04/24 04:59:11;;;;;;;6.80;6.20;;;;;;;;;;2097910;28;20175;-54
2022/04/24 05:00:13;;;;;;;6.40;5.80;;;;;;;;;;2096276;28;20167;-53
2022/04/24 05:01:13;;;;;;;6.20;5.80;;;;;;;;;;2097945;28;20179;-55
2022/04/24 05:02:13;;;;;;;6.10;5.60;;;;;;;;;;2102864;28;20174;-49
2022/04/24 05:03:14;;;;;;;5.90;5.38;;;;;;;;;;2096937;28;20282;-51
2022/04/24 05:04:14;;;;;;;6.05;5.50;;;;;;;;;;2086519;28;20179;-54
2022/04/24 05:05:14;;;;;;;6.50;5.80;;;;;;;;;;2092891;28;20188;-56
2022/04/24 05:06:15;;;;;;;5.85;5.45;;;;;;;;;;2097653;28;20368;-51
2022/04/24 05:07:15;;;;;;;6.20;5.70;;;;;;;;;;2097502;28;20195;-50
2022/04/24 05:08:15;;;;;;;6.32;5.75;;;;;;;;;;2099096;28;20170;-52
2022/04/24 05:09:16;;;;;;;6.25;5.80;;;;;;;;;;2088241;28;20179;-50
2022/04/24 05:10:16;;;;;;;6.10;5.60;;;;;;;;;;2089373;28;20274;-53
2022/04/24 05:11:16;;;;;;;6.70;5.72;;;;;;;;;;2098070;28;20194;-58
2022/04/24 05:12:17;;;;;;;5.47;5.07;;;;;;;;;;2096969;28;20644;-57
2022/04/24 05:13:17;;;;;;;6.40;5.80;;;;;;;;;;2096538;28;20720;-56
2022/04/24 05:14:17;;;;;;;6.30;5.80;;;;;;;;;;2095392;28;20240;-57
2022/04/24 05:15:19;;;;;;;6.13;5.63;;;;;;;;;;2098273;28;20167;-52
2022/04/24 05:16:19;;;;;;;5.25;4.85;;;;;;;;;;2096209;28;20180;-54
2022/04/24 05:17:19;;;;;;;6.00;4.97;;;;;;;;;;2094773;28;20185;-51
2022/04/24 05:18:20;;;;;;;6.20;5.57;;;;;;;;;;2098562;28;20558;-49
2022/04/24 05:19:20;;;;;;;5.95;5.53;;;;;;;;;;2097734;28;20224;-53
2022/04/24 05:20:20;;;;;;;6.35;5.85;;;;;;;;;;2098468;28;20224;-50
2022/04/24 05:21:20;;;;;;;6.00;5.50;;;;;;;;;;2098227;28;20195;-50
2022/04/24 05:22:21;;;;;;;5.78;5.28;;;;;;;;;;2098927;28;20572;-51
2022/04/24 05:23:21;;;;;;;6.00;5.60;;;;;;;;;;2097710;28;20174;-55
2022/04/24 05:24:22;;;;;;;6.10;5.60;;;;;;;;;;2097675;28;20554;-57
2022/04/24 05:25:22;;;;;;;7.15;5.32;;;;;;;;;;2097615;28;20722;-56
2022/04/24 05:26:22;;;;;;;5.47;5.07;;;;;;;;;;2099075;28;20182;-56
2022/04/24 05:27:22;;;;;;;5.53;5.15;;;;;;;;;;2098541;28;20199;-50
2022/04/24 05:28:23;;;;;;;7.63;5.53;;;;;;;;;;2098113;28;20179;-52
2022/04/24 05:29:23;;;;;;;5.30;4.90;;;;;;;;;;2098769;28;20286;-51
2022/04/24 05:30:23;;;;;;;6.10;5.60;;;;;;;;;;2098286;28;20553;-53
2022/04/24 05:31:24;;;;;;;6.55;5.88;;;;;;;;;;2096119;28;20601;-53
2022/04/24 05:32:24;;;;;;;6.63;6.13;;;;;;;;;;2097812;28;20171;-53
2022/04/24 05:33:24;;;;;;;5.25;4.85;;;;;;;;;;2096441;28;20183;-56
2022/04/24 05:34:24;;;;;;;6.07;5.25;;;;;;;;;;2095408;28;20179;-55
2022/04/24 05:35:25;;;;;;;5.90;5.50;;;;;;;;;;2097703;28;20175;-54
2022/04/24 05:36:25;;;;;;;5.72;5.28;;;;;;;;;;2095623;28;20595;-56
2022/04/24 05:37:25;;;;;;;6.10;5.60;;;;;;;;;;2101690;28;20190;-57
2022/04/24 05:38:25;;;;;;;5.50;5.10;;;;;;;;;;2099275;28;20197;-58
2022/04/24 05:39:26;;;;;;;5.68;5.28;;;;;;;;;;2102794;28;20852;-56
2022/04/24 05:40:26;;;;;;;5.38;5.03;;;;;;;;;;2100927;28;20174;-57
2022/04/24 05:41:26;;;;;;;6.55;5.95;;;;;;;;;;2102215;28;20598;-57
2022/04/24 05:42:29;;;;;;;6.35;5.82;;;;;;;;;;2101610;28;20182;-61
2022/04/24 05:43:30;;;;;;;5.88;5.43;;;;;;;;;;2098956;28;20175;-58
2022/04/24 05:44:30;;;;;;;5.95;5.55;;;;;;;;;;2096600;28;20175;-61
2022/04/24 05:45:32;;;;;;;6.15;5.65;;;;;;;;;;2097537;28;20179;-59
2022/04/24 05:46:32;;;;;;;6.90;6.13;;;;;;;;;;2101234;28;20171;-59
2022/04/24 05:47:32;;;;;;;5.70;5.25;;;;;;;;;;2101528;28;20178;-61
2022/04/24 05:48:33;;;;;;;5.97;5.50;;;;;;;;;;2107945;28;20178;-59
2022/04/24 05:49:33;;;;;;;5.80;5.30;;;;;;;;;;2108287;28;20178;-58
2022/04/24 05:50:33;;;;;;;6.20;5.60;;;;;;;;;;2100222;28;20211;-58
2022/04/24 05:51:33;;;;;;;5.88;5.47;;;;;;;;;;2098836;28;20988;-57
2022/04/24 05:52:34;;;;;;;5.97;5.47;;;;;;;;;;2097895;28;20183;-57
2022/04/24 05:53:34;;;;;;;5.82;5.43;;;;;;;;;;2099044;28;20170;-57
2022/04/24 05:54:34;;;;;;;5.22;4.82;;;;;;;;;;2099319;28;20321;-61
2022/04/24 05:55:34;;;;;;;6.07;5.63;;;;;;;;;;2100244;28;20190;-57
2022/04/24 05:56:34;;;;;;;6.32;5.45;;;;;;;;;;2095311;28;20170;-60
2022/04/24 05:57:35;;;;;;;6.25;5.85;;;;;;;;;;2096383;28;20186;-58
2022/04/24 05:58:36;;;;;;;6.35;5.78;;;;;;;;;;2096610;28;20270;-57
2022/04/24 05:59:36;;;;;;;6.25;5.78;;;;;;;;;;2097260;28;22400;-57
2022/04/24 06:00:36;;;;;;;6.05;5.60;;;;;;;;;;2099411;28;20187;-51
2022/04/24 06:01:37;;;;;;;5.85;5.40;;;;;;;;;;2099977;28;20195;-56
2022/04/24 06:02:37;;;;;;;5.78;5.38;;;;;;;;;;2100272;28;20210;-56
2022/04/24 06:03:40;;;;;;;5.22;4.82;;;;;;;;;;2096886;28;20250;-56